Time;durP1;ratioP1;P1;durP2;ratioP2;P2;SDS_P1;SDS_P2;PMS_P1;PMS_P2;Temp;Humidity;BMP_temperature;BMP_pressure;BME280_temperature;BME280_humidity;BME280_pressure;Samples;Min_cycle;Max_cycle;Signal;HPM_P1;HPM_P2
2022/05/27 00:02:02;;;;;;;25.13;21.58;;;14.60;99.90;;;;;;5049512;28;20412;-89
2022/05/27 00:04:30;;;;;;;24.83;21.10;;;14.60;99.90;;;;;;5031513;28;20442;-86
2022/05/27 00:06:56;;;;;;;24.08;21.30;;;14.60;99.90;;;;;;5029889;28;20789;-86
2022/05/27 00:09:23;;;;;;;24.90;21.97;;;14.60;99.90;;;;;;5029849;28;20383;-85
2022/05/27 00:11:49;;;;;;;25.17;22.30;;;14.60;99.90;;;;;;5048511;28;20394;-85
2022/05/27 00:14:15;;;;;;;27.45;22.80;;;14.50;99.90;;;;;;5033326;28;20399;-87
2022/05/27 00:16:44;;;;;;;25.27;22.13;;;14.50;99.90;;;;;;5030490;28;21275;-88
2022/05/27 00:19:09;;;;;;;26.30;22.85;;;14.60;99.90;;;;;;5028653;28;20412;-85
2022/05/27 00:21:38;;;;;;;24.47;21.70;;;14.60;99.90;;;;;;5038304;28;20450;-87
2022/05/27 00:24:04;;;;;;;24.08;21.52;;;14.60;99.90;;;;;;5019174;28;20393;-86
2022/05/27 00:26:30;;;;;;;22.05;19.77;;;14.60;99.90;;;;;;5044691;28;20422;-88
2022/05/27 00:28:58;;;;;;;21.33;19.10;;;14.60;99.90;;;;;;5048354;28;20877;-85
2022/05/27 00:31:26;;;;;;;21.10;18.92;;;14.60;99.90;;;;;;5030234;28;20470;-89
2022/05/27 00:33:51;;;;;;;19.45;17.00;;;14.60;99.90;;;;;;5014139;28;20408;-90
2022/05/27 00:36:17;;;;;;;19.23;17.03;;;14.60;99.90;;;;;;5015372;28;20910;-87
2022/05/27 00:38:43;;;;;;;18.65;16.75;;;14.50;99.90;;;;;;5036465;28;20464;-87
2022/05/27 00:41:11;;;;;;;18.65;16.65;;;14.60;99.90;;;;;;5034596;28;20980;-90
2022/05/27 00:43:39;;;;;;;18.70;16.70;;;14.60;99.90;;;;;;5020537;28;20394;-87
2022/05/27 00:46:13;;;;;;;19.42;17.52;;;14.60;99.90;;;;;;5020656;28;20383;-88
2022/05/27 00:48:41;;;;;;;19.33;17.35;;;14.50;99.90;;;;;;5032853;28;20457;-90
2022/05/27 00:51:16;;;;;;;19.33;17.23;;;14.60;99.90;;;;;;5024050;28;20390;-88
2022/05/27 00:54:08;;;;;;;19.48;17.55;;;14.60;99.90;;;;;;5033936;28;20469;-86
2022/05/27 00:56:39;;;;;;;20.95;18.77;;;14.60;99.90;;;;;;5023337;28;20421;-90
2022/05/27 00:59:19;;;;;;;21.73;19.45;;;14.60;99.90;;;;;;5020575;28;20490;-88
2022/05/27 01:01:45;;;;;;;21.90;19.27;;;14.60;99.90;;;;;;5033877;28;20384;-88
2022/05/27 01:04:11;;;;;;;22.15;20.05;;;14.70;99.90;;;;;;5035045;28;20384;-86
2022/05/27 01:06:37;;;;;;;21.90;19.70;;;14.60;99.90;;;;;;5035152;28;20874;-87
2022/05/27 01:09:03;;;;;;;22.55;20.20;;;14.60;99.90;;;;;;5035226;28;20521;-87
2022/05/27 01:11:55;;;;;;;22.83;20.42;;;14.60;99.90;;;;;;5024725;28;20478;-87
2022/05/27 01:14:36;;;;;;;23.10;20.73;;;14.70;99.90;;;;;;5021765;28;20532;-89
2022/05/27 01:17:54;;;;;;;25.05;22.52;;;14.60;99.90;;;;;;5016215;28;20480;-85
2022/05/27 01:20:42;;;;;;;24.63;22.10;;;14.60;99.90;;;;;;5003456;28;20417;-87
2022/05/27 01:23:28;;;;;;;24.80;22.27;;;14.70;99.90;;;;;;5015339;28;20416;-87
2022/05/27 01:26:34;;;;;;;24.40;22.00;;;14.70;99.90;;;;;;5006628;28;20390;-88
2022/05/27 01:29:08;;;;;;;26.05;23.25;;;14.60;99.90;;;;;;5034833;28;20418;-88
2022/05/27 01:31:34;;;;;;;25.90;23.17;;;14.60;99.90;;;;;;5033143;28;20420;-88
2022/05/27 01:34:13;;;;;;;25.80;23.13;;;14.60;99.90;;;;;;5034729;28;20388;-86
2022/05/27 01:37:05;;;;;;;24.73;22.33;;;14.70;99.90;;;;;;5021430;28;20469;-88
2022/05/27 01:40:08;;;;;;;25.25;22.75;;;14.70;99.90;;;;;;5034346;28;20419;-86
2022/05/27 01:42:50;;;;;;;25.83;22.45;;;14.70;99.90;;;;;;5022074;28;20405;-90
2022/05/27 01:45:22;;;;;;;24.73;22.13;;;14.70;99.90;;;;;;5013225;28;20394;-88
2022/05/27 01:48:08;;;;;;;24.92;22.38;;;14.70;99.90;;;;;;5029745;28;20399;-88
2022/05/27 01:50:42;;;;;;;24.25;21.88;;;14.80;99.90;;;;;;5033917;28;20750;-87
2022/05/27 01:53:42;;;;;;;25.58;22.83;;;14.80;99.90;;;;;;5032538;28;20390;-87
2022/05/27 01:56:22;;;;;;;25.10;22.50;;;14.80;99.90;;;;;;5015574;28;20403;-87
2022/05/27 01:58:56;;;;;;;25.10;22.40;;;14.80;99.90;;;;;;5014700;28;20413;-90
2022/05/27 02:01:39;;;;;;;23.15;20.85;;;14.80;99.90;;;;;;5028345;28;20407;-89
2022/05/27 02:04:22;;;;;;;23.40;21.00;;;14.80;99.90;;;;;;5020760;28;20398;-87
2022/05/27 02:07:05;;;;;;;21.45;19.30;;;14.70;99.90;;;;;;5014278;28;20386;-87
2022/05/27 02:09:44;;;;;;;22.80;20.43;;;14.70;99.90;;;;;;5045831;28;20423;-87
2022/05/27 02:12:36;;;;;;;21.65;19.48;;;14.80;99.90;;;;;;5051478;28;20380;-88
2022/05/27 02:15:15;;;;;;;22.40;20.10;;;14.80;99.90;;;;;;5011675;28;20551;-87
2022/05/27 02:17:54;;;;;;;21.67;19.48;;;14.70;99.90;;;;;;5014832;28;20425;-87
2022/05/27 02:20:25;;;;;;;22.80;20.50;;;14.80;99.90;;;;;;5013617;28;20492;-90
2022/05/27 02:22:56;;;;;;;22.92;20.45;;;14.80;99.90;;;;;;5021166;28;20800;-88
2022/05/27 02:25:29;;;;;;;21.92;19.55;;;14.80;99.90;;;;;;5022591;28;20751;-86
2022/05/27 02:28:12;;;;;;;20.55;18.45;;;14.70;99.90;;;;;;5046728;28;20400;-87
2022/05/27 02:30:42;;;;;;;20.33;18.23;;;14.70;99.90;;;;;;5024262;28;20426;-86
2022/05/27 02:36:01;;;;;;;19.50;17.38;;;14.70;99.90;;;;;;5051901;28;20395;-87
2022/05/27 02:38:30;;;;;;;19.23;16.80;;;14.60;99.90;;;;;;5015995;28;20448;-88
2022/05/27 02:41:14;;;;;;;17.57;15.87;;;14.60;99.90;;;;;;5032231;28;20970;-90
2022/05/27 02:43:56;;;;;;;16.87;15.27;;;14.60;99.90;;;;;;5032500;28;20413;-89
2022/05/27 02:46:57;;;;;;;16.90;15.27;;;14.60;99.90;;;;;;5020393;28;20392;-89
2022/05/27 02:49:32;;;;;;;18.75;16.20;;;14.60;99.90;;;;;;5003301;28;20382;-90
2022/05/27 02:52:03;;;;;;;16.70;15.10;;;14.50;99.90;;;;;;5048664;28;20404;-87
2022/05/27 02:54:47;;;;;;;16.23;14.60;;;14.50;99.90;;;;;;5032968;28;20406;-90
2022/05/27 02:57:29;;;;;;;16.95;15.27;;;14.50;99.90;;;;;;5017946;28;20454;-89
2022/05/27 02:59:55;;;;;;;17.20;15.55;;;14.50;99.90;;;;;;5014106;28;20414;-87
2022/05/27 03:02:21;;;;;;;17.65;15.25;;;14.60;99.90;;;;;;5012665;28;20876;-87
2022/05/27 03:04:53;;;;;;;17.23;15.53;;;14.50;99.90;;;;;;5012745;28;20393;-87
2022/05/27 03:07:21;;;;;;;16.85;15.05;;;14.60;99.90;;;;;;5014711;28;20405;-90
2022/05/27 03:10:20;;;;;;;17.08;14.35;;;14.60;99.90;;;;;;5031098;28;20432;-91
2022/05/27 03:13:17;;;;;;;17.23;15.43;;;14.60;99.90;;;;;;5032425;28;20383;-90
2022/05/27 03:16:05;;;;;;;16.90;15.30;;;14.50;99.90;;;;;;5018029;28;20397;-91
2022/05/27 03:18:38;;;;;;;16.42;14.73;;;14.50;99.90;;;;;;5012387;28;21009;-88
2022/05/27 03:21:27;;;;;;;16.00;14.40;;;14.50;99.90;;;;;;5013023;28;20397;-89
2022/05/27 03:24:21;;;;;;;16.65;14.95;;;14.50;99.90;;;;;;5013719;28;20451;-88
2022/05/27 03:26:51;;;;;;;18.30;14.98;;;14.50;99.90;;;;;;4994573;28;20385;-87
2022/05/27 03:29:26;;;;;;;17.30;15.60;;;14.50;99.90;;;;;;5030800;28;20398;-87
2022/05/27 03:32:04;;;;;;;17.20;14.18;;;14.50;99.90;;;;;;5029299;28;20413;-87
2022/05/27 03:34:48;;;;;;;17.13;15.07;;;14.50;99.90;;;;;;5022566;28;20395;-84
2022/05/27 03:37:30;;;;;;;18.55;15.30;;;14.50;99.90;;;;;;5016212;28;20810;-87
2022/05/27 03:40:10;;;;;;;16.30;14.68;;;14.50;99.90;;;;;;5026728;28;20409;-87
2022/05/27 03:42:38;;;;;;;17.57;15.73;;;14.50;99.90;;;;;;5012224;28;20409;-89
2022/05/27 03:45:09;;;;;;;16.17;14.38;;;14.60;99.90;;;;;;5013015;28;20799;-89
2022/05/27 03:47:36;;;;;;;15.63;13.90;;;14.60;99.90;;;;;;5012554;28;20452;-87
2022/05/27 03:50:03;;;;;;;15.70;14.05;;;14.50;99.90;;;;;;5016690;28;20411;-87
2022/05/27 03:52:35;;;;;;;16.83;15.02;;;14.60;99.90;;;;;;5031515;28;20399;-87
2022/05/27 03:55:05;;;;;;;16.30;14.70;;;14.60;99.90;;;;;;5016589;28;20551;-87
2022/05/27 03:57:30;;;;;;;19.17;14.65;;;14.60;99.90;;;;;;5029568;28;20390;-87
2022/05/27 03:59:56;;;;;;;17.60;15.20;;;14.70;99.90;;;;;;5047014;28;20975;-87
2022/05/27 04:02:21;;;;;;;16.75;14.95;;;14.60;99.90;;;;;;5031670;28;20418;-86
2022/05/27 04:04:47;;;;;;;15.83;14.27;;;14.60;99.90;;;;;;5043589;28;20397;-87
2022/05/27 04:07:13;;;;;;;16.60;14.90;;;14.70;99.90;;;;;;5013014;28;20381;-87
2022/05/27 04:09:41;;;;;;;16.27;14.57;;;14.70;99.90;;;;;;5032977;28;20478;-88
2022/05/27 04:12:07;;;;;;;17.88;14.40;;;14.70;99.90;;;;;;5036338;28;20388;-86
2022/05/27 04:14:33;;;;;;;16.35;14.43;;;14.70;99.90;;;;;;5034076;28;20384;-87
2022/05/27 04:19:43;;;;;;;16.60;13.73;;;14.80;99.90;;;;;;5050341;28;20450;-88
2022/05/27 04:22:13;;;;;;;15.82;13.90;;;14.80;99.90;;;;;;5050990;28;20413;-89
2022/05/27 04:24:39;;;;;;;16.52;12.77;;;14.70;99.90;;;;;;5017485;28;20369;-86
2022/05/27 04:27:31;;;;;;;15.32;11.90;;;14.80;99.90;;;;;;5019486;28;20401;-89
2022/05/27 04:29:57;;;;;;;15.60;12.32;;;14.80;99.90;;;;;;5018595;28;20397;-88
2022/05/27 04:32:25;;;;;;;15.07;12.30;;;14.80;99.90;;;;;;5016060;28;20404;-87
2022/05/27 04:34:55;;;;;;;14.50;11.90;;;14.90;99.90;;;;;;5015342;28;20464;-87
2022/05/27 04:37:22;;;;;;;14.70;11.57;;;14.90;99.90;;;;;;5015638;28;20385;-85
2022/05/27 04:39:48;;;;;;;14.27;12.65;;;14.90;99.90;;;;;;5030690;28;20958;-88
2022/05/27 04:42:13;;;;;;;15.83;12.63;;;14.90;99.90;;;;;;5015326;28;20463;-86
2022/05/27 04:44:39;;;;;;;16.02;13.15;;;14.90;99.90;;;;;;5038307;28;20885;-87
2022/05/27 04:47:07;;;;;;;17.77;13.95;;;14.90;99.90;;;;;;5034534;28;20403;-89
2022/05/27 04:49:51;;;;;;;17.10;13.68;;;15.00;99.90;;;;;;5032775;28;20466;-88
2022/05/27 04:52:18;;;;;;;16.40;13.95;;;15.00;99.90;;;;;;5031963;28;20392;-88
2022/05/27 04:54:44;;;;;;;16.85;14.98;;;15.00;99.90;;;;;;5031033;28;20409;-87
2022/05/27 04:57:20;;;;;;;16.92;15.15;;;14.90;99.90;;;;;;5031791;28;20470;-89
2022/05/27 04:59:49;;;;;;;17.63;15.93;;;14.80;99.90;;;;;;5032558;28;20411;-90
2022/05/27 05:02:17;;;;;;;17.73;15.35;;;14.80;99.90;;;;;;5034016;28;20467;-87
2022/05/27 05:04:43;;;;;;;16.00;14.20;;;14.90;99.90;;;;;;5034090;28;20829;-85
2022/05/27 05:07:09;;;;;;;16.30;14.53;;;14.90;99.90;;;;;;5033591;28;20459;-84
2022/05/27 05:09:37;;;;;;;19.33;15.07;;;14.90;99.90;;;;;;5034223;28;20467;-88
2022/05/27 05:12:04;;;;;;;16.50;14.30;;;14.80;99.90;;;;;;5034180;28;20451;-85
2022/05/27 05:14:30;;;;;;;18.77;14.20;;;14.90;99.90;;;;;;5033389;28;20434;-84
2022/05/27 05:16:56;;;;;;;21.33;14.07;;;14.90;99.90;;;;;;5051819;28;20372;-86
2022/05/27 05:19:21;;;;;;;17.53;14.63;;;14.80;99.90;;;;;;5034650;28;20743;-86
2022/05/27 05:21:47;;;;;;;15.57;12.82;;;14.70;99.90;;;;;;5034336;28;20380;-88
2022/05/27 05:24:13;;;;;;;14.47;11.90;;;14.80;99.90;;;;;;5026851;28;20381;-90
2022/05/27 05:26:39;;;;;;;16.17;12.38;;;14.80;99.90;;;;;;5015211;28;20388;-86
2022/05/27 05:29:06;;;;;;;17.15;11.85;;;14.80;99.90;;;;;;5047678;28;20433;-88
2022/05/27 05:31:32;;;;;;;19.80;13.15;;;14.80;99.90;;;;;;5032190;28;20378;-87
2022/05/27 05:33:59;;;;;;;17.23;13.35;;;14.70;99.90;;;;;;5018898;28;20921;-86
2022/05/27 05:36:26;;;;;;;17.77;12.17;;;14.80;99.90;;;;;;5033566;28;20391;-85
2022/05/27 05:38:51;;;;;;;15.85;11.95;;;14.80;99.90;;;;;;5033458;28;20434;-85
2022/05/27 05:41:37;;;;;;;14.73;11.90;;;14.80;99.90;;;;;;5033613;28;20778;-87
2022/05/27 05:44:06;;;;;;;15.05;11.52;;;14.80;99.90;;;;;;5022184;28;20399;-85
2022/05/27 05:46:33;;;;;;;14.30;11.13;;;14.90;99.90;;;;;;5023814;28;20399;-85
2022/05/27 05:48:59;;;;;;;15.15;11.05;;;14.90;99.90;;;;;;5022665;28;20404;-84
2022/05/27 05:51:25;;;;;;;15.95;11.38;;;15.00;99.90;;;;;;5049831;28;20902;-85
2022/05/27 05:53:51;;;;;;;17.40;11.30;;;14.90;99.90;;;;;;5017824;28;20784;-85
2022/05/27 05:56:17;;;;;;;13.73;10.10;;;14.90;99.90;;;;;;5031149;28;20382;-87
2022/05/27 05:58:43;;;;;;;13.85;9.60;;;14.90;99.90;;;;;;5040763;28;20889;-84
2022/05/27 06:01:08;;;;;;;12.75;8.55;;;14.90;99.90;;;;;;5032265;28;20392;-85
2022/05/27 06:03:34;;;;;;;11.55;7.47;;;14.90;99.90;;;;;;5019340;28;20412;-89
2022/05/27 06:06:00;;;;;;;9.83;6.40;;;15.10;99.90;;;;;;5030873;28;20392;-85
2022/05/27 06:08:27;;;;;;;11.95;6.22;;;15.20;99.90;;;;;;5051326;28;20403;-87
2022/05/27 06:11:00;;;;;;;6.85;5.35;;;15.30;99.90;;;;;;5050806;28;20376;-90
2022/05/27 06:13:26;;;;;;;8.20;5.80;;;15.70;99.90;;;;;;5023042;28;20883;-86
2022/05/27 06:15:52;;;;;;;8.35;4.95;;;15.80;99.90;;;;;;5046686;28;20447;-89
2022/05/27 06:18:18;;;;;;;8.80;4.93;;;15.80;99.90;;;;;;5013429;28;20389;-88
2022/05/27 06:20:44;;;;;;;8.70;4.43;;;15.90;99.90;;;;;;5015035;28;20903;-89
2022/05/27 06:23:10;;;;;;;5.53;3.53;;;16.00;99.90;;;;;;5033854;28;20380;-89
2022/05/27 06:25:38;;;;;;;6.03;3.90;;;16.10;99.90;;;;;;5034881;28;20383;-90
2022/05/27 06:36:19;;;;;;;5.30;3.13;;;17.10;99.90;;;;;;5051396;28;20822;-90
2022/05/27 06:38:46;;;;;;;8.50;3.57;;;17.00;99.90;;;;;;5031109;28;20394;-89
2022/05/27 06:41:12;;;;;;;7.78;3.38;;;17.00;99.90;;;;;;5032983;28;20450;-88
2022/05/27 06:43:37;;;;;;;7.45;3.28;;;17.20;99.90;;;;;;5033034;28;20441;-87
2022/05/27 06:46:06;;;;;;;7.80;3.45;;;17.10;99.90;;;;;;5025382;28;20407;-90
2022/05/27 06:48:31;;;;;;;9.18;3.67;;;17.00;99.90;;;;;;5013513;28;20402;-88
2022/05/27 06:51:06;;;;;;;6.90;3.27;;;16.80;99.90;;;;;;5013867;28;20382;-88
2022/05/27 06:53:31;;;;;;;6.65;3.70;;;16.90;99.90;;;;;;5013944;28;20390;-88
2022/05/27 06:55:57;;;;;;;8.43;4.03;;;17.00;99.90;;;;;;5016396;28;20409;-90
2022/05/27 06:58:23;;;;;;;6.57;3.42;;;17.20;99.90;;;;;;5033187;28;20379;-92
2022/05/27 07:00:49;;;;;;;6.70;3.37;;;17.40;99.90;;;;;;5030434;28;20423;-88
2022/05/27 07:03:14;;;;;;;8.45;3.40;;;17.40;99.90;;;;;;5013485;28;20401;-92
2022/05/27 07:05:40;;;;;;;5.60;2.83;;;;;;;;;;5026254;28;20933;-89
2022/05/27 07:08:06;;;;;;;8.35;2.80;;;;;;;;;;5032930;28;20379;-88
2022/05/27 07:10:33;;;;;;;7.57;2.63;;;17.80;99.90;;;;;;5032502;28;20375;-87
2022/05/27 07:13:02;;;;;;;7.20;2.30;;;17.70;99.90;;;;;;5032950;28;20438;-90
2022/05/27 07:15:31;;;;;;;5.43;2.25;;;17.70;99.90;;;;;;5033525;28;20470;-91
2022/05/27 07:17:57;;;;;;;6.90;2.30;;;17.60;99.90;;;;;;5032241;28;20380;-87
2022/05/27 07:20:24;;;;;;;6.95;2.30;;;17.60;99.90;;;;;;5033008;28;20429;-84
2022/05/27 07:22:50;;;;;;;6.10;2.40;;;17.60;99.90;;;;;;5033601;28;20382;-88
2022/05/27 07:25:16;;;;;;;7.40;2.70;;;17.70;99.90;;;;;;5051861;28;20474;-90
2022/05/27 07:27:42;;;;;;;6.13;2.35;;;17.80;99.90;;;;;;5033453;28;20467;-88
2022/05/27 07:30:09;;;;;;;6.70;2.33;;;18.00;99.90;;;;;;5067711;28;20377;-88
2022/05/27 07:32:36;;;;;;;7.07;2.15;;;18.00;99.90;;;;;;5070699;28;20451;-86
2022/05/27 07:35:03;;;;;;;7.60;2.05;;;18.00;99.90;;;;;;5038788;28;20400;-90
2022/05/27 07:37:32;;;;;;;5.95;2.25;;;17.80;99.90;;;;;;5031650;28;20928;-88
2022/05/27 07:39:58;;;;;;;6.78;2.35;;;17.60;99.90;;;;;;5049666;28;20498;-90
2022/05/27 07:42:23;;;;;;;8.10;2.72;;;16.40;99.90;;;;;;5049053;28;20462;-88
2022/05/27 07:44:50;;;;;;;8.37;2.83;;;17.60;99.90;;;;;;5048449;28;20380;-88
2022/05/27 07:47:17;;;;;;;8.57;2.58;;;17.60;99.90;;;;;;5061992;28;20418;-85
2022/05/27 07:49:43;;;;;;;7.90;2.25;;;17.60;99.90;;;;;;5035516;28;20396;-88
2022/05/27 07:52:09;;;;;;;7.22;2.50;;;17.70;99.90;;;;;;5031002;28;20383;-87
2022/05/27 07:54:34;;;;;;;7.25;2.17;;;17.60;99.90;;;;;;5032948;28;20766;-88
2022/05/27 07:57:00;;;;;;;8.60;2.37;;;17.10;99.90;;;;;;5048466;28;20399;-85
2022/05/27 07:59:29;;;;;;;8.35;2.53;;;17.00;99.90;;;;;;5032475;28;20430;-91
2022/05/27 08:01:55;;;;;;;7.85;2.63;;;16.90;99.90;;;;;;5032289;28;20384;-87
2022/05/27 08:04:20;;;;;;;7.20;2.33;;;17.10;99.90;;;;;;5049680;28;21205;-86
2022/05/27 08:06:46;;;;;;;7.95;2.70;;;17.50;99.90;;;;;;5051183;28;20399;-89
2022/05/27 08:09:13;;;;;;;8.15;2.33;;;17.60;99.90;;;;;;5032740;28;20399;-90
2022/05/27 08:11:39;;;;;;;7.85;2.55;;;17.90;99.90;;;;;;5032183;28;20380;-87
2022/05/27 08:14:06;;;;;;;6.53;2.40;;;18.00;99.90;;;;;;5032002;28;20379;-86
2022/05/27 08:16:35;;;;;;;7.82;2.58;;;18.10;99.90;;;;;;5031226;28;20388;-88
2022/05/27 08:19:03;;;;;;;8.48;2.58;;;18.10;99.90;;;;;;5030723;28;20412;-87
2022/05/27 08:21:36;;;;;;;5.63;2.53;;;18.10;99.90;;;;;;5031825;28;20376;-90
2022/05/27 08:24:02;;;;;;;9.18;3.30;;;18.30;99.90;;;;;;5031302;28;20384;-88
2022/05/27 08:26:28;;;;;;;6.30;2.70;;;18.20;99.90;;;;;;5031639;28;20434;-86
2022/05/27 08:28:54;;;;;;;6.97;2.53;;;18.60;99.90;;;;;;5031276;28;20476;-87
2022/05/27 08:31:20;;;;;;;6.68;2.67;;;18.40;99.90;;;;;;5031824;28;20395;-87
2022/05/27 08:39:22;;;;;;;8.23;2.85;;;18.00;99.90;;;;;;5049384;28;20419;-86
2022/05/27 08:41:48;;;;;;;6.05;2.45;;;;;;;;;;5048523;28;20761;-84
2022/05/27 08:44:25;;;;;;;16.70;2.58;;;18.50;95.20;;;;;;5048808;28;20356;-88
2022/05/27 08:46:53;;;;;;;8.20;2.58;;;18.50;94.70;;;;;;5030879;28;20734;-89
2022/05/27 08:49:27;;;;;;;7.87;2.60;;;18.60;98.00;;;;;;5049102;28;20419;-87
2022/05/27 08:52:00;;;;;;;5.40;2.20;;;18.60;95.70;;;;;;5031104;28;20877;-87
2022/05/27 08:54:57;;;;;;;8.15;2.70;;;18.60;96.00;;;;;;5049915;28;20436;-90
2022/05/27 09:00:14;;;;;;;7.93;2.90;;;18.50;97.10;;;;;;5053317;28;20565;-90
2022/05/27 09:02:59;;;;;;;8.95;2.90;;;18.80;94.40;;;;;;5035357;28;20380;-85
2022/05/27 09:05:31;;;;;;;7.82;2.58;;;18.80;95.20;;;;;;5034885;28;20400;-88
2022/05/27 09:08:05;;;;;;;9.68;2.70;;;18.70;95.70;;;;;;5036954;28;20380;-87
2022/05/27 09:10:43;;;;;;;7.05;2.53;;;18.70;96.60;;;;;;5056587;28;20372;-88
2022/05/27 09:13:23;;;;;;;12.10;2.67;;;18.70;95.30;;;;;;5036473;28;20784;-88
2022/05/27 09:15:56;;;;;;;8.55;2.80;;;18.60;95.00;;;;;;5035783;28;20396;-89
2022/05/27 09:18:37;;;;;;;7.28;2.58;;;;;;;;;;5034607;28;20380;-87
2022/05/27 09:21:10;;;;;;;12.98;3.20;;;18.10;99.90;;;;;;5022533;28;20490;-85
2022/05/27 09:23:42;;;;;;;11.13;2.92;;;17.90;99.90;;;;;;5055098;28;20481;-86
2022/05/27 09:26:19;;;;;;;9.52;2.90;;;;;;;;;;5036829;28;20442;-87
2022/05/27 09:29:04;;;;;;;9.03;2.50;;;17.90;93.20;;;;;;5035385;28;20473;-86
2022/05/27 09:31:41;;;;;;;11.20;2.87;;;17.90;93.80;;;;;;5034872;28;20383;-86
2022/05/27 09:34:10;;;;;;;8.10;2.53;;;17.80;96.60;;;;;;5034387;28;20448;-88
2022/05/27 09:36:42;;;;;;;11.32;2.78;;;17.90;94.70;;;;;;5034411;28;20866;-87
2022/05/27 09:39:14;;;;;;;9.45;2.78;;;17.70;95.60;;;;;;5029349;28;20399;-84
2022/05/27 09:41:59;;;;;;;10.98;2.83;;;17.30;96.10;;;;;;5032285;28;20397;-87
2022/05/27 09:44:48;;;;;;;7.70;2.35;;;17.00;97.20;;;;;;5042356;28;21074;-87
2022/05/27 09:47:16;;;;;;;7.97;2.78;;;17.10;96.50;;;;;;5033734;28;20379;-83
2022/05/27 09:49:45;;;;;;;7.43;2.60;;;17.20;96.20;;;;;;5051403;28;20376;-84
2022/05/27 09:52:10;;;;;;;7.43;2.45;;;17.60;96.90;;;;;;5051548;28;20407;-84
2022/05/27 09:54:49;;;;;;;8.65;2.78;;;18.00;97.20;;;;;;5032962;28;20426;-86
2022/05/27 09:57:22;;;;;;;6.85;2.70;;;18.40;96.30;;;;;;5030310;28;20422;-89
2022/05/27 09:59:57;;;;;;;7.28;2.65;;;18.50;94.30;;;;;;5033246;28;20404;-89
2022/05/27 10:02:28;;;;;;;7.40;2.40;;;18.50;93.60;;;;;;5050403;28;20375;-90
2022/05/27 10:04:54;;;;;;;8.82;2.88;;;18.50;94.60;;;;;;5032567;28;20842;-87
2022/05/27 10:07:36;;;;;;;11.83;3.13;;;18.80;96.70;;;;;;5034376;28;20433;-86
2022/05/27 10:10:18;;;;;;;8.77;2.50;;;19.30;95.30;;;;;;5048759;28;20885;-85
2022/05/27 10:12:44;;;;;;;7.32;2.78;;;19.30;95.40;;;;;;5031594;28;20380;-87
2022/05/27 10:15:22;;;;;;;11.80;3.10;;;19.00;94.80;;;;;;5032630;28;20443;-86
2022/05/27 10:17:48;;;;;;;8.13;2.97;;;19.20;96.20;;;;;;5033271;28;20459;-86
2022/05/27 10:20:22;;;;;;;9.57;3.03;;;;;;;;;;5032565;28;20608;-84
2022/05/27 10:22:58;;;;;;;7.68;2.80;;;;;;;;;;5033740;28;20472;-89
2022/05/27 10:25:36;;;;;;;8.57;3.00;;;;;;;;;;5030941;28;20383;-87
2022/05/27 10:28:02;;;;;;;8.55;2.88;;;;;;;;;;5030578;28;20422;-90
2022/05/27 10:30:30;;;;;;;10.05;3.05;;;;;;;;;;5032420;28;20730;-89
2022/05/27 10:32:56;;;;;;;7.50;2.90;;;;;;;;;;5030504;28;20379;-91
2022/05/27 10:35:32;;;;;;;9.30;2.53;;;;;;;;;;5031547;28;20399;-87
2022/05/27 10:38:00;;;;;;;7.60;2.92;;;;;;;;;;5016443;28;21988;-88
2022/05/27 10:40:37;;;;;;;8.20;2.80;;;;;;;;;;5032093;28;20495;-86
2022/05/27 10:43:24;;;;;;;8.50;2.60;;;;;;;;;;5032021;28;20380;-87
2022/05/27 10:45:57;;;;;;;10.68;2.92;;;20.60;90.80;;;;;;5030664;28;20836;-92
2022/05/27 10:49:00;;;;;;;8.13;2.75;;;20.40;90.80;;;;;;5032030;28;20398;-87
2022/05/27 10:51:36;;;;;;;8.77;2.80;;;20.40;92.70;;;;;;5028636;28;20416;-87
2022/05/27 10:54:27;;;;;;;12.35;2.85;;;20.00;90.10;;;;;;5044599;28;20462;-89
2022/05/27 11:03:48;;;;;;;6.63;2.70;;;19.70;90.60;;;;;;5048290;28;20422;-85
2022/05/27 11:06:27;;;;;;;6.57;2.60;;;19.20;90.70;;;;;;4998046;28;20435;-86
2022/05/27 11:09:14;;;;;;;11.85;3.00;;;19.20;89.70;;;;;;5023893;28;20419;-89
2022/05/27 11:11:40;;;;;;;7.25;2.50;;;19.10;91.50;;;;;;5046473;28;20388;-89
2022/05/27 11:17:08;;;;;;;7.90;2.57;;;20.20;90.00;;;;;;5046316;28;20383;-86
2022/05/27 11:20:00;;;;;;;9.35;2.55;;;20.10;90.30;;;;;;5029853;28;20399;-85
2022/05/27 11:22:45;;;;;;;10.00;2.83;;;19.70;90.30;;;;;;5058493;28;20401;-88
2022/05/27 11:25:32;;;;;;;6.40;2.42;;;19.40;92.00;;;;;;5033830;28;20450;-83
2022/05/27 11:28:18;;;;;;;7.60;2.75;;;19.30;91.80;;;;;;5049081;28;20384;-87
2022/05/27 11:31:06;;;;;;;7.13;2.55;;;19.10;89.80;;;;;;5018465;28;20403;-87
2022/05/27 11:33:44;;;;;;;10.52;2.88;;;19.00;91.30;;;;;;5046643;28;20407;-89
2022/05/27 11:36:52;;;;;;;10.85;2.75;;;19.00;91.50;;;;;;5025772;28;20415;-88
2022/05/27 11:39:55;;;;;;;13.82;3.15;;;19.10;92.70;;;;;;5029885;28;20435;-88
2022/05/27 11:42:21;;;;;;;8.45;2.95;;;18.90;93.50;;;;;;5026410;28;20397;-91
2022/05/27 11:45:16;;;;;;;12.17;2.70;;;18.70;92.90;;;;;;5029185;28;20960;-88
2022/05/27 11:47:59;;;;;;;11.85;3.22;;;18.60;94.90;;;;;;5032282;28;20407;-88
2022/05/27 11:50:58;;;;;;;8.32;2.65;;;18.50;95.50;;;;;;5031883;28;20384;-88
2022/05/27 11:53:49;;;;;;;8.70;2.72;;;18.60;97.00;;;;;;5031308;28;20391;-88
2022/05/27 11:56:24;;;;;;;7.18;2.70;;;18.80;96.40;;;;;;5031114;28;20383;-87
2022/05/27 11:58:58;;;;;;;9.07;2.75;;;18.90;94.10;;;;;;5049308;28;20765;-86
2022/05/27 12:01:37;;;;;;;9.53;2.70;;;19.20;94.80;;;;;;5031806;28;20399;-90
2022/05/27 12:04:35;;;;;;;8.20;2.88;;;19.00;92.90;;;;;;5031368;28;20375;-88
2022/05/27 12:07:10;;;;;;;10.87;3.03;;;18.80;94.00;;;;;;5031739;28;20391;-89
2022/05/27 12:09:40;;;;;;;10.55;2.75;;;18.80;94.10;;;;;;5024419;28;20888;-85
2022/05/27 12:12:15;;;;;;;7.95;2.40;;;18.90;91.40;;;;;;5015855;28;20427;-86
2022/05/27 12:14:48;;;;;;;6.85;2.45;;;19.00;91.50;;;;;;5028658;28;20739;-86
2022/05/27 12:17:21;;;;;;;6.18;2.70;;;19.20;90.90;;;;;;5028622;28;20400;-85
2022/05/27 12:19:57;;;;;;;8.00;2.63;;;19.20;90.30;;;;;;5049216;28;20410;-90
2022/05/27 12:22:27;;;;;;;6.47;2.50;;;18.90;89.70;;;;;;5030861;28;20381;-89
2022/05/27 12:25:07;;;;;;;8.40;2.78;;;18.80;90.70;;;;;;5030558;28;20765;-88
2022/05/27 12:27:34;;;;;;;6.72;2.70;;;18.70;91.90;;;;;;5030434;28;20383;-88
2022/05/27 12:30:03;;;;;;;10.23;2.88;;;18.10;94.10;;;;;;5049866;28;20475;-85
2022/05/27 12:32:29;;;;;;;8.23;2.63;;;17.50;95.00;;;;;;5035826;28;20423;-87
2022/05/27 12:35:18;;;;;;;7.70;2.80;;;16.80;96.90;;;;;;5053672;28;20378;-87
2022/05/27 12:38:13;;;;;;;7.28;2.42;;;16.80;99.80;;;;;;5030126;28;20407;-86
2022/05/27 12:40:46;;;;;;;8.77;2.33;;;17.20;95.50;;;;;;5052736;28;20407;-88
2022/05/27 12:43:16;;;;;;;7.37;2.30;;;17.60;96.00;;;;;;5034493;28;20379;-88
2022/05/27 12:45:52;;;;;;;6.63;1.98;;;17.80;93.70;;;;;;5035350;28;21233;-86
2022/05/27 12:48:40;;;;;;;6.72;2.13;;;17.70;92.80;;;;;;5035363;28;20388;-87
2022/05/27 12:51:08;;;;;;;6.07;2.13;;;17.80;93.40;;;;;;5052063;28;20476;-89
2022/05/27 12:53:58;;;;;;;8.43;2.30;;;18.00;90.90;;;;;;5036156;28;20434;-86
2022/05/27 13:02:22;;;;;;;7.57;2.70;;;18.30;90.60;;;;;;5051858;28;20395;-87
2022/05/27 13:04:53;;;;;;;6.60;2.65;;;18.50;90.90;;;;;;5034156;28;20407;-87
2022/05/27 13:07:28;;;;;;;9.73;2.65;;;18.60;90.50;;;;;;5051500;28;20445;-88
2022/05/27 13:09:54;;;;;;;10.48;2.92;;;18.70;92.30;;;;;;5048055;28;20384;-87
2022/05/27 13:12:44;;;;;;;10.35;2.60;;;19.10;90.20;;;;;;5052069;28;20383;-86
2022/05/27 13:15:14;;;;;;;9.93;2.80;;;19.30;87.60;;;;;;5031036;28;20474;-86
2022/05/27 13:17:45;;;;;;;10.27;2.70;;;19.40;88.70;;;;;;5035152;28;20391;-82
2022/05/27 13:20:22;;;;;;;19.08;3.83;;;19.00;84.20;;;;;;5048546;28;20447;-85
2022/05/27 13:22:58;;;;;;;43.10;5.40;;;19.00;85.00;;;;;;5031096;28;20399;-87
2022/05/27 13:25:29;;;;;;;22.52;4.40;;;18.80;87.90;;;;;;5031527;28;20395;-88
2022/05/27 13:28:09;;;;;;;10.27;3.07;;;19.00;89.70;;;;;;5034153;28;20375;-85
2022/05/27 13:31:03;;;;;;;15.23;3.40;;;19.50;87.60;;;;;;5032950;28;20423;-87
2022/05/27 13:33:34;;;;;;;27.60;4.20;;;19.70;88.50;;;;;;5030788;28;20418;-88
2022/05/27 13:36:02;;;;;;;22.02;3.70;;;19.80;89.40;;;;;;5033199;28;20380;-87
2022/05/27 13:38:34;;;;;;;27.63;4.47;;;20.00;87.30;;;;;;5032658;28;20494;-89
2022/05/27 13:41:01;;;;;;;16.97;3.00;;;20.20;82.30;;;;;;5034303;28;20430;-86
2022/05/27 13:43:36;;;;;;;15.48;3.38;;;20.30;80.40;;;;;;5033258;28;20438;-89
2022/05/27 13:46:01;;;;;;;9.50;2.55;;;20.20;78.50;;;;;;5034710;28;20415;-83
2022/05/27 13:48:34;;;;;;;9.80;2.87;;;20.20;81.30;;;;;;5031933;28;20419;-83
2022/05/27 13:51:10;;;;;;;11.02;2.80;;;20.20;81.60;;;;;;5034647;28;20821;-88